map of TKS home
TKS - Airport
Location
City:  Tokushima, Shikoku Island, Tokushima, Japan
Near (Alt.):Matsushige
Name:Tokushima Airport
ICAO:RJOS
IATA:TKS

Details
Type:Airport (Aerodrome, Airfield)
Use:Public/Civil, Military
Latitude:3407'58"N (34.132808)
Longitude:13436'24"E (134.606639)
Datum:WGS 1984
Elevation:26 ft (8 m)
Variation:7.60W (WMM2015 magnetic declination)
-0.07 annual change
Runways:1
Longest:6560 × 150 ft (1999 × 45.5 m), paved

Time
Time Zone:UTC+9
Local Time:

Weather
METAR:RJOS 150800Z 03009KT 9999 FEW035 BKN050 08/01 Q1028

Related Locations
Nearby:
Farthest:SSMT: 12057 mi / 19403 km
Mostardas, RS, BR

Find:

   beyond  
but within

Other Information
Maps:
NOTAMs:
Links:
Sources:

  
  • flag of Japan
  • flag of Tokushima
  • flag of Tokushima
  

Sectional Chart

Flight Planning
at skyvector.com

Satellite Image

Google Maps Satellite view

 

Copyright © 2004-2018 Karl L. Swartz. All rights reserved.
The Great Circle Mapper name and logo are trademarks of the Great Circle Mapper.
All other trademarks mentioned herein belong to their respective owners.
Please see credits for attibutions and further copyright information.

  Follow gcmap on Facebook Follow gcmap on Twitter Follow gcmap on Google+ GCmap on LinkedIn

hCard Microformat

Geo Microformat